sensor_id;sensor_type;location;lat;lon;timestamp;temperature;humidity
29777;DHT22;16677;52.224;7.484;2023-05-07T00:01:35;14.70;1.00
29777;DHT22;16677;52.224;7.484;2023-05-07T00:04:01;14.60;1.00
29777;DHT22;16677;52.224;7.484;2023-05-07T00:06:31;14.60;1.00
29777;DHT22;16677;52.224;7.484;2023-05-07T00:08:58;14.60;1.00
29777;DHT22;16677;52.224;7.484;2023-05-07T00:11:27;14.60;99.90
29777;DHT22;16677;52.224;7.484;2023-05-07T00:13:54;14.50;1.00
29777;DHT22;16677;52.224;7.484;2023-05-07T00:16:21;14.50;1.00
29777;DHT22;16677;52.224;7.484;2023-05-07T00:18:48;14.50;1.00
29777;DHT22;16677;52.224;7.484;2023-05-07T00:21:16;14.40;1.00
29777;DHT22;16677;52.224;7.484;2023-05-07T00:23:43;14.30;99.90
29777;DHT22;16677;52.224;7.484;2023-05-07T00:26:10;14.30;99.90
29777;DHT22;16677;52.224;7.484;2023-05-07T00:28:36;14.20;99.90
29777;DHT22;16677;52.224;7.484;2023-05-07T00:31:03;14.20;99.90
29777;DHT22;16677;52.224;7.484;2023-05-07T00:33:30;14.20;1.00
29777;DHT22;16677;52.224;7.484;2023-05-07T00:35:57;14.20;1.00
29777;DHT22;16677;52.224;7.484;2023-05-07T00:38:24;14.10;1.00
29777;DHT22;16677;52.224;7.484;2023-05-07T00:40:51;14.20;45.40
29777;DHT22;16677;52.224;7.484;2023-05-07T00:43:18;14.10;1.00
29777;DHT22;16677;52.224;7.484;2023-05-07T00:45:45;14.10;1.00
29777;DHT22;16677;52.224;7.484;2023-05-07T00:48:12;14.10;1.00
29777;DHT22;16677;52.224;7.484;2023-05-07T00:50:40;14.10;1.00
29777;DHT22;16677;52.224;7.484;2023-05-07T00:53:07;14.10;1.00
29777;DHT22;16677;52.224;7.484;2023-05-07T00:55:35;14.10;99.90
29777;DHT22;16677;52.224;7.484;2023-05-07T00:58:02;14.00;99.90
29777;DHT22;16677;52.224;7.484;2023-05-07T01:00:29;13.90;1.00
29777;DHT22;16677;52.224;7.484;2023-05-07T01:02:57;13.80;1.00
29777;DHT22;16677;52.224;7.484;2023-05-07T01:05:26;13.80;1.00
29777;DHT22;16677;52.224;7.484;2023-05-07T01:07:55;13.80;1.00
29777;DHT22;16677;52.224;7.484;2023-05-07T01:10:24;13.90;1.00
29777;DHT22;16677;52.224;7.484;2023-05-07T01:12:52;13.90;1.00
29777;DHT22;16677;52.224;7.484;2023-05-07T01:15:20;13.90;99.90
29777;DHT22;16677;52.224;7.484;2023-05-07T01:17:47;14.00;28.60
29777;DHT22;16677;52.224;7.484;2023-05-07T01:20:15;13.90;1.00
29777;DHT22;16677;52.224;7.484;2023-05-07T01:22:43;13.90;1.00
29777;DHT22;16677;52.224;7.484;2023-05-07T01:25:10;13.90;1.00
29777;DHT22;16677;52.224;7.484;2023-05-07T01:27:37;13.80;1.00
29777;DHT22;16677;52.224;7.484;2023-05-07T01:30:05;13.90;1.00
29777;DHT22;16677;52.224;7.484;2023-05-07T01:32:37;13.90;1.00
29777;DHT22;16677;52.224;7.484;2023-05-07T01:35:10;13.90;1.00
29777;DHT22;16677;52.224;7.484;2023-05-07T01:37:39;13.80;1.00
29777;DHT22;16677;52.224;7.484;2023-05-07T01:40:08;13.80;1.00
29777;DHT22;16677;52.224;7.484;2023-05-07T01:42:36;13.80;1.00
29777;DHT22;16677;52.224;7.484;2023-05-07T01:45:03;13.80;1.00
29777;DHT22;16677;52.224;7.484;2023-05-07T01:47:31;13.70;99.90
29777;DHT22;16677;52.224;7.484;2023-05-07T01:49:59;13.70;1.00
29777;DHT22;16677;52.224;7.484;2023-05-07T01:52:27;13.70;99.90
29777;DHT22;16677;52.224;7.484;2023-05-07T01:54:54;13.60;1.00
29777;DHT22;16677;52.224;7.484;2023-05-07T01:57:22;13.60;99.90
29777;DHT22;16677;52.224;7.484;2023-05-07T01:59:49;13.60;99.90
29777;DHT22;16677;52.224;7.484;2023-05-07T02:02:16;13.60;99.90
29777;DHT22;16677;52.224;7.484;2023-05-07T02:04:43;13.60;99.90
29777;DHT22;16677;52.224;7.484;2023-05-07T02:07:10;13.60;99.90
29777;DHT22;16677;52.224;7.484;2023-05-07T02:09:38;13.50;99.90
29777;DHT22;16677;52.224;7.484;2023-05-07T02:12:05;13.40;99.90
29777;DHT22;16677;52.224;7.484;2023-05-07T02:14:32;13.40;1.00
29777;DHT22;16677;52.224;7.484;2023-05-07T02:16:59;13.40;1.00
29777;DHT22;16677;52.224;7.484;2023-05-07T02:19:26;13.40;1.00
29777;DHT22;16677;52.224;7.484;2023-05-07T02:21:53;13.30;1.00
29777;DHT22;16677;52.224;7.484;2023-05-07T02:24:20;13.20;1.00
29777;DHT22;16677;52.224;7.484;2023-05-07T02:26:47;13.10;1.00
29777;DHT22;16677;52.224;7.484;2023-05-07T02:29:14;13.10;1.00
29777;DHT22;16677;52.224;7.484;2023-05-07T02:31:42;13.20;1.00
29777;DHT22;16677;52.224;7.484;2023-05-07T02:34:09;13.10;1.00
29777;DHT22;16677;52.224;7.484;2023-05-07T02:36:36;13.00;99.90
29777;DHT22;16677;52.224;7.484;2023-05-07T02:39:03;13.00;99.90
29777;DHT22;16677;52.224;7.484;2023-05-07T02:41:30;13.00;99.90
29777;DHT22;16677;52.224;7.484;2023-05-07T02:43:57;13.10;99.90
29777;DHT22;16677;52.224;7.484;2023-05-07T02:46:24;13.10;64.70
29777;DHT22;16677;52.224;7.484;2023-05-07T02:48:51;13.10;1.00
29777;DHT22;16677;52.224;7.484;2023-05-07T02:51:22;13.00;1.00
29777;DHT22;16677;52.224;7.484;2023-05-07T02:53:51;13.00;25.80
29777;DHT22;16677;52.224;7.484;2023-05-07T02:56:18;12.90;1.00
29777;DHT22;16677;52.224;7.484;2023-05-07T02:58:45;12.80;99.90
29777;DHT22;16677;52.224;7.484;2023-05-07T03:01:12;12.80;99.90
29777;DHT22;16677;52.224;7.484;2023-05-07T03:03:40;12.80;99.90
29777;DHT22;16677;52.224;7.484;2023-05-07T03:06:07;12.80;99.90
29777;DHT22;16677;52.224;7.484;2023-05-07T03:08:34;12.80;99.90
29777;DHT22;16677;52.224;7.484;2023-05-07T03:11:01;12.90;99.90
29777;DHT22;16677;52.224;7.484;2023-05-07T03:13:28;12.90;37.30
29777;DHT22;16677;52.224;7.484;2023-05-07T03:15:55;12.80;99.90
29777;DHT22;16677;52.224;7.484;2023-05-07T03:18:22;12.80;96.70
29777;DHT22;16677;52.224;7.484;2023-05-07T03:20:49;12.70;99.90
29777;DHT22;16677;52.224;7.484;2023-05-07T03:23:16;12.70;99.90
29777;DHT22;16677;52.224;7.484;2023-05-07T03:25:43;12.60;1.00
29777;DHT22;16677;52.224;7.484;2023-05-07T03:28:09;12.70;1.00
29777;DHT22;16677;52.224;7.484;2023-05-07T03:30:36;12.70;99.90
29777;DHT22;16677;52.224;7.484;2023-05-07T03:33:03;12.70;99.90
29777;DHT22;16677;52.224;7.484;2023-05-07T03:35:31;12.60;99.90
29777;DHT22;16677;52.224;7.484;2023-05-07T03:37:58;12.60;99.90
29777;DHT22;16677;52.224;7.484;2023-05-07T03:40:25;12.60;99.90
29777;DHT22;16677;52.224;7.484;2023-05-07T03:42:52;12.50;99.90
29777;DHT22;16677;52.224;7.484;2023-05-07T03:45:19;12.50;99.90
29777;DHT22;16677;52.224;7.484;2023-05-07T03:47:46;12.50;1.00
29777;DHT22;16677;52.224;7.484;2023-05-07T03:50:13;12.50;1.00
29777;DHT22;16677;52.224;7.484;2023-05-07T03:52:40;12.50;1.00
29777;DHT22;16677;52.224;7.484;2023-05-07T03:55:07;12.60;1.00
29777;DHT22;16677;52.224;7.484;2023-05-07T03:57:34;12.60;1.00
29777;DHT22;16677;52.224;7.484;2023-05-07T04:00:01;12.50;1.00
29777;DHT22;16677;52.224;7.484;2023-05-07T04:02:30;12.60;1.00
29777;DHT22;16677;52.224;7.484;2023-05-07T04:04:57;12.70;1.00
29777;DHT22;16677;52.224;7.484;2023-05-07T04:07:24;12.70;99.90
29777;DHT22;16677;52.224;7.484;2023-05-07T04:09:51;12.60;16.20
29777;DHT22;16677;52.224;7.484;2023-05-07T04:12:18;12.60;99.90
29777;DHT22;16677;52.224;7.484;2023-05-07T04:14:44;12.50;99.90
29777;DHT22;16677;52.224;7.484;2023-05-07T04:17:11;12.50;99.90
29777;DHT22;16677;52.224;7.484;2023-05-07T04:19:38;12.50;99.90
29777;DHT22;16677;52.224;7.484;2023-05-07T04:22:05;12.50;1.00
29777;DHT22;16677;52.224;7.484;2023-05-07T04:24:32;12.50;99.90
29777;DHT22;16677;52.224;7.484;2023-05-07T04:27:01;12.50;99.90
29777;DHT22;16677;52.224;7.484;2023-05-07T04:29:28;12.50;99.90
29777;DHT22;16677;52.224;7.484;2023-05-07T04:31:55;12.50;99.90
29777;DHT22;16677;52.224;7.484;2023-05-07T04:34:22;12.50;99.90
29777;DHT22;16677;52.224;7.484;2023-05-07T04:36:49;12.50;99.90
29777;DHT22;16677;52.224;7.484;2023-05-07T04:39:16;12.50;99.90
29777;DHT22;16677;52.224;7.484;2023-05-07T04:41:43;12.50;99.90
29777;DHT22;16677;52.224;7.484;2023-05-07T04:44:10;12.60;1.00
29777;DHT22;16677;52.224;7.484;2023-05-07T04:46:37;12.60;99.90
29777;DHT22;16677;52.224;7.484;2023-05-07T04:49:04;12.50;99.90
29777;DHT22;16677;52.224;7.484;2023-05-07T04:51:32;12.50;1.00
29777;DHT22;16677;52.224;7.484;2023-05-07T04:53:59;12.50;1.00
29777;DHT22;16677;52.224;7.484;2023-05-07T04:56:27;12.50;1.00
29777;DHT22;16677;52.224;7.484;2023-05-07T04:58:56;12.50;1.00
29777;DHT22;16677;52.224;7.484;2023-05-07T05:01:23;12.60;1.00
29777;DHT22;16677;52.224;7.484;2023-05-07T05:03:50;12.60;99.90
29777;DHT22;16677;52.224;7.484;2023-05-07T05:06:17;12.80;99.90
29777;DHT22;16677;52.224;7.484;2023-05-07T05:08:44;12.80;99.90
29777;DHT22;16677;52.224;7.484;2023-05-07T05:11:10;12.90;1.00
29777;DHT22;16677;52.224;7.484;2023-05-07T05:13:37;13.00;1.00
29777;DHT22;16677;52.224;7.484;2023-05-07T05:16:04;13.10;99.90
29777;DHT22;16677;52.224;7.484;2023-05-07T05:18:32;13.10;99.90
29777;DHT22;16677;52.224;7.484;2023-05-07T05:20:59;13.20;74.30
29777;DHT22;16677;52.224;7.484;2023-05-07T05:23:26;13.30;99.90
29777;DHT22;16677;52.224;7.484;2023-05-07T05:25:56;13.40;1.00
29777;DHT22;16677;52.224;7.484;2023-05-07T05:28:24;13.60;1.00
29777;DHT22;16677;52.224;7.484;2023-05-07T05:30:51;13.70;99.90
29777;DHT22;16677;52.224;7.484;2023-05-07T05:33:18;13.80;99.90
29777;DHT22;16677;52.224;7.484;2023-05-07T05:35:45;13.60;1.00
29777;DHT22;16677;52.224;7.484;2023-05-07T05:38:12;13.70;1.00
29777;DHT22;16677;52.224;7.484;2023-05-07T05:40:39;13.80;99.90
29777;DHT22;16677;52.224;7.484;2023-05-07T05:43:05;13.80;99.90
29777;DHT22;16677;52.224;7.484;2023-05-07T05:45:32;13.80;99.90
29777;DHT22;16677;52.224;7.484;2023-05-07T05:48:00;13.90;99.90
29777;DHT22;16677;52.224;7.484;2023-05-07T05:50:26;13.80;99.90
29777;DHT22;16677;52.224;7.484;2023-05-07T05:52:53;13.90;99.90
29777;DHT22;16677;52.224;7.484;2023-05-07T05:55:20;14.00;99.90
29777;DHT22;16677;52.224;7.484;2023-05-07T05:57:48;14.00;99.90
29777;DHT22;16677;52.224;7.484;2023-05-07T06:00:16;14.10;99.90
29777;DHT22;16677;52.224;7.484;2023-05-07T06:02:42;14.00;99.90
29777;DHT22;16677;52.224;7.484;2023-05-07T06:05:10;13.80;99.90
29777;DHT22;16677;52.224;7.484;2023-05-07T06:07:37;13.90;99.90
29777;DHT22;16677;52.224;7.484;2023-05-07T06:10:04;13.80;99.90
29777;DHT22;16677;52.224;7.484;2023-05-07T06:12:31;13.60;99.90
29777;DHT22;16677;52.224;7.484;2023-05-07T06:14:58;13.70;1.00
29777;DHT22;16677;52.224;7.484;2023-05-07T06:17:25;13.90;1.00
29777;DHT22;16677;52.224;7.484;2023-05-07T06:19:52;14.00;99.90
29777;DHT22;16677;52.224;7.484;2023-05-07T06:22:19;14.30;99.90
29777;DHT22;16677;52.224;7.484;2023-05-07T06:24:46;14.60;99.90
29777;DHT22;16677;52.224;7.484;2023-05-07T06:27:13;14.90;1.00
29777;DHT22;16677;52.224;7.484;2023-05-07T06:29:40;15.30;1.00
29777;DHT22;16677;52.224;7.484;2023-05-07T06:32:11;15.80;1.00
29777;DHT22;16677;52.224;7.484;2023-05-07T06:34:40;16.00;1.00
29777;DHT22;16677;52.224;7.484;2023-05-07T06:37:07;16.30;1.00
29777;DHT22;16677;52.224;7.484;2023-05-07T06:39:34;16.70;1.00
29777;DHT22;16677;52.224;7.484;2023-05-07T06:42:01;16.90;1.00
29777;DHT22;16677;52.224;7.484;2023-05-07T06:44:29;16.60;1.00
29777;DHT22;16677;52.224;7.484;2023-05-07T06:46:57;16.40;1.00
29777;DHT22;16677;52.224;7.484;2023-05-07T06:49:24;16.50;1.00
29777;DHT22;16677;52.224;7.484;2023-05-07T06:51:51;16.50;1.00
29777;DHT22;16677;52.224;7.484;2023-05-07T06:54:18;16.60;1.00
29777;DHT22;16677;52.224;7.484;2023-05-07T06:56:45;16.60;1.00
29777;DHT22;16677;52.224;7.484;2023-05-07T06:59:12;16.60;1.00
29777;DHT22;16677;52.224;7.484;2023-05-07T07:01:39;16.70;1.00
29777;DHT22;16677;52.224;7.484;2023-05-07T07:04:07;16.40;1.00
29777;DHT22;16677;52.224;7.484;2023-05-07T07:06:34;16.40;1.00
29777;DHT22;16677;52.224;7.484;2023-05-07T07:09:01;16.50;1.00
29777;DHT22;16677;52.224;7.484;2023-05-07T07:11:28;16.50;1.00
29777;DHT22;16677;52.224;7.484;2023-05-07T07:13:55;16.60;1.00
29777;DHT22;16677;52.224;7.484;2023-05-07T07:16:23;16.50;1.00
29777;DHT22;16677;52.224;7.484;2023-05-07T07:18:50;16.30;1.00
29777;DHT22;16677;52.224;7.484;2023-05-07T07:21:17;16.20;1.00
29777;DHT22;16677;52.224;7.484;2023-05-07T07:23:44;16.20;1.00
29777;DHT22;16677;52.224;7.484;2023-05-07T07:26:11;16.50;1.00
29777;DHT22;16677;52.224;7.484;2023-05-07T07:28:43;16.50;1.00
29777;DHT22;16677;52.224;7.484;2023-05-07T07:31:13;16.40;1.00
29777;DHT22;16677;52.224;7.484;2023-05-07T07:33:40;16.10;1.00
29777;DHT22;16677;52.224;7.484;2023-05-07T07:36:07;16.10;1.00
29777;DHT22;16677;52.224;7.484;2023-05-07T07:38:34;16.20;1.00
29777;DHT22;16677;52.224;7.484;2023-05-07T07:41:01;15.80;1.00
29777;DHT22;16677;52.224;7.484;2023-05-07T07:43:29;16.20;1.00
29777;DHT22;16677;52.224;7.484;2023-05-07T07:45:56;16.40;1.00
29777;DHT22;16677;52.224;7.484;2023-05-07T07:48:22;16.50;1.00
29777;DHT22;16677;52.224;7.484;2023-05-07T07:50:50;16.60;1.00
29777;DHT22;16677;52.224;7.484;2023-05-07T07:53:19;16.70;1.00
29777;DHT22;16677;52.224;7.484;2023-05-07T07:55:46;16.80;1.00
29777;DHT22;16677;52.224;7.484;2023-05-07T07:58:13;16.90;1.00
29777;DHT22;16677;52.224;7.484;2023-05-07T08:00:40;17.00;1.00
29777;DHT22;16677;52.224;7.484;2023-05-07T08:03:09;17.20;1.00
29777;DHT22;16677;52.224;7.484;2023-05-07T08:05:37;17.50;1.00
29777;DHT22;16677;52.224;7.484;2023-05-07T08:08:05;17.80;99.90
29777;DHT22;16677;52.224;7.484;2023-05-07T08:10:33;18.00;99.90
29777;DHT22;16677;52.224;7.484;2023-05-07T08:13:01;18.30;99.90
29777;DHT22;16677;52.224;7.484;2023-05-07T08:15:30;18.30;99.90
29777;DHT22;16677;52.224;7.484;2023-05-07T08:17:58;18.20;99.90
29777;DHT22;16677;52.224;7.484;2023-05-07T08:20:27;17.50;99.90
29777;DHT22;16677;52.224;7.484;2023-05-07T08:22:55;17.40;1.00
29777;DHT22;16677;52.224;7.484;2023-05-07T08:25:22;17.50;1.00
29777;DHT22;16677;52.224;7.484;2023-05-07T08:27:49;17.70;1.00
29777;DHT22;16677;52.224;7.484;2023-05-07T08:30:16;18.00;99.90
29777;DHT22;16677;52.224;7.484;2023-05-07T08:32:43;18.20;99.90
29777;DHT22;16677;52.224;7.484;2023-05-07T08:35:11;18.20;99.90
29777;DHT22;16677;52.224;7.484;2023-05-07T08:37:38;18.20;99.90
29777;DHT22;16677;52.224;7.484;2023-05-07T08:40:05;18.10;99.90
29777;DHT22;16677;52.224;7.484;2023-05-07T08:42:38;18.20;99.90
29777;DHT22;16677;52.224;7.484;2023-05-07T08:45:10;18.40;99.90
29777;DHT22;16677;52.224;7.484;2023-05-07T08:47:44;18.30;99.90
29777;DHT22;16677;52.224;7.484;2023-05-07T08:50:17;18.30;99.90
29777;DHT22;16677;52.224;7.484;2023-05-07T08:52:45;18.20;99.90
29777;DHT22;16677;52.224;7.484;2023-05-07T08:55:12;18.40;99.90
29777;DHT22;16677;52.224;7.484;2023-05-07T08:57:40;18.20;99.90
29777;DHT22;16677;52.224;7.484;2023-05-07T09:00:07;18.40;99.90
29777;DHT22;16677;52.224;7.484;2023-05-07T09:02:36;18.40;99.90
29777;DHT22;16677;52.224;7.484;2023-05-07T09:05:04;18.50;99.90
29777;DHT22;16677;52.224;7.484;2023-05-07T09:07:31;18.70;99.90
29777;DHT22;16677;52.224;7.484;2023-05-07T09:10:01;18.60;99.90
29777;DHT22;16677;52.224;7.484;2023-05-07T09:12:30;18.90;99.90
29777;DHT22;16677;52.224;7.484;2023-05-07T09:14:58;18.60;99.90
29777;DHT22;16677;52.224;7.484;2023-05-07T09:17:25;18.30;99.90
29777;DHT22;16677;52.224;7.484;2023-05-07T09:19:53;18.40;99.90
29777;DHT22;16677;52.224;7.484;2023-05-07T09:22:19;18.20;99.90
29777;DHT22;16677;52.224;7.484;2023-05-07T09:24:47;18.20;99.90
29777;DHT22;16677;52.224;7.484;2023-05-07T09:27:17;18.30;99.90
29777;DHT22;16677;52.224;7.484;2023-05-07T09:29:44;18.70;99.90
29777;DHT22;16677;52.224;7.484;2023-05-07T09:32:11;18.70;99.90
29777;DHT22;16677;52.224;7.484;2023-05-07T09:34:38;18.70;99.90
29777;DHT22;16677;52.224;7.484;2023-05-07T09:37:05;18.10;99.90
29777;DHT22;16677;52.224;7.484;2023-05-07T09:42:08;18.20;99.90
29777;DHT22;16677;52.224;7.484;2023-05-07T09:44:35;18.10;99.90
29777;DHT22;16677;52.224;7.484;2023-05-07T09:47:04;18.30;99.90
29777;DHT22;16677;52.224;7.484;2023-05-07T09:49:33;18.60;99.90
29777;DHT22;16677;52.224;7.484;2023-05-07T09:52:03;18.40;99.90
29777;DHT22;16677;52.224;7.484;2023-05-07T09:54:32;18.90;99.90
29777;DHT22;16677;52.224;7.484;2023-05-07T09:57:01;18.80;99.90
29777;DHT22;16677;52.224;7.484;2023-05-07T09:59:30;19.00;99.90
29777;DHT22;16677;52.224;7.484;2023-05-07T10:01:59;18.90;99.90
29777;DHT22;16677;52.224;7.484;2023-05-07T10:04:28;18.90;99.90
29777;DHT22;16677;52.224;7.484;2023-05-07T10:06:55;18.90;99.90
29777;DHT22;16677;52.224;7.484;2023-05-07T10:09:23;19.20;99.90
29777;DHT22;16677;52.224;7.484;2023-05-07T10:11:50;19.40;99.90
29777;DHT22;16677;52.224;7.484;2023-05-07T10:14:19;19.60;99.90
29777;DHT22;16677;52.224;7.484;2023-05-07T10:16:48;19.90;99.90
29777;DHT22;16677;52.224;7.484;2023-05-07T10:19:15;20.10;99.90
29777;DHT22;16677;52.224;7.484;2023-05-07T10:21:44;20.20;99.90
29777;DHT22;16677;52.224;7.484;2023-05-07T10:24:29;20.60;99.90
29777;DHT22;16677;52.224;7.484;2023-05-07T10:27:00;20.60;99.90
29777;DHT22;16677;52.224;7.484;2023-05-07T10:29:32;20.70;99.90
29777;DHT22;16677;52.224;7.484;2023-05-07T10:32:13;20.50;99.90
29777;DHT22;16677;52.224;7.484;2023-05-07T10:35:02;20.50;99.90
29777;DHT22;16677;52.224;7.484;2023-05-07T10:37:33;20.10;99.90
29777;DHT22;16677;52.224;7.484;2023-05-07T10:40:01;19.80;99.90
29777;DHT22;16677;52.224;7.484;2023-05-07T10:42:28;20.00;99.90
29777;DHT22;16677;52.224;7.484;2023-05-07T10:44:55;20.30;99.90
29777;DHT22;16677;52.224;7.484;2023-05-07T10:47:22;20.70;99.90
29777;DHT22;16677;52.224;7.484;2023-05-07T10:52:23;21.10;99.90
29777;DHT22;16677;52.224;7.484;2023-05-07T10:55:19;21.00;99.90
29777;DHT22;16677;52.224;7.484;2023-05-07T10:57:52;21.40;99.90
29777;DHT22;16677;52.224;7.484;2023-05-07T11:03:07;20.80;99.90
29777;DHT22;16677;52.224;7.484;2023-05-07T11:05:35;21.00;99.90
29777;DHT22;16677;52.224;7.484;2023-05-07T11:08:05;21.30;99.90
29777;DHT22;16677;52.224;7.484;2023-05-07T11:10:54;20.90;99.90
29777;DHT22;16677;52.224;7.484;2023-05-07T11:13:55;20.30;99.90
29777;DHT22;16677;52.224;7.484;2023-05-07T11:16:25;19.80;99.90
29777;DHT22;16677;52.224;7.484;2023-05-07T11:18:56;19.80;99.90
29777;DHT22;16677;52.224;7.484;2023-05-07T11:21:40;20.40;99.90
29777;DHT22;16677;52.224;7.484;2023-05-07T11:24:08;20.30;99.90
29777;DHT22;16677;52.224;7.484;2023-05-07T11:26:46;20.20;99.90
29777;DHT22;16677;52.224;7.484;2023-05-07T11:29:18;20.20;99.90
29777;DHT22;16677;52.224;7.484;2023-05-07T11:31:48;20.10;99.90
29777;DHT22;16677;52.224;7.484;2023-05-07T11:34:20;20.50;99.90
29777;DHT22;16677;52.224;7.484;2023-05-07T11:36:51;20.90;99.90
29777;DHT22;16677;52.224;7.484;2023-05-07T11:41:55;21.60;99.90
29777;DHT22;16677;52.224;7.484;2023-05-07T11:44:22;21.40;99.90
29777;DHT22;16677;52.224;7.484;2023-05-07T11:46:49;21.50;99.90
29777;DHT22;16677;52.224;7.484;2023-05-07T11:49:17;21.40;99.90
29777;DHT22;16677;52.224;7.484;2023-05-07T11:51:44;21.90;99.90
29777;DHT22;16677;52.224;7.484;2023-05-07T11:54:15;22.20;99.90
29777;DHT22;16677;52.224;7.484;2023-05-07T11:56:44;21.80;99.90
29777;DHT22;16677;52.224;7.484;2023-05-07T11:59:11;21.80;99.90
29777;DHT22;16677;52.224;7.484;2023-05-07T12:01:38;21.70;99.90
29777;DHT22;16677;52.224;7.484;2023-05-07T12:04:06;21.60;99.90
29777;DHT22;16677;52.224;7.484;2023-05-07T12:06:36;21.60;99.90
29777;DHT22;16677;52.224;7.484;2023-05-07T12:09:04;21.90;99.90
29777;DHT22;16677;52.224;7.484;2023-05-07T12:11:33;21.80;99.90
29777;DHT22;16677;52.224;7.484;2023-05-07T12:14:00;22.00;99.90
29777;DHT22;16677;52.224;7.484;2023-05-07T12:16:27;21.90;99.90
29777;DHT22;16677;52.224;7.484;2023-05-07T12:18:55;22.40;99.90
29777;DHT22;16677;52.224;7.484;2023-05-07T12:21:25;22.20;99.90
29777;DHT22;16677;52.224;7.484;2023-05-07T12:23:52;22.10;99.90
29777;DHT22;16677;52.224;7.484;2023-05-07T12:26:19;22.10;99.90
29777;DHT22;16677;52.224;7.484;2023-05-07T12:28:48;22.60;99.90
29777;DHT22;16677;52.224;7.484;2023-05-07T12:31:15;22.50;99.90
29777;DHT22;16677;52.224;7.484;2023-05-07T12:33:42;22.40;99.90
29777;DHT22;16677;52.224;7.484;2023-05-07T12:36:12;22.10;99.90
29777;DHT22;16677;52.224;7.484;2023-05-07T12:38:40;22.20;99.90
29777;DHT22;16677;52.224;7.484;2023-05-07T12:41:09;21.90;99.90
29777;DHT22;16677;52.224;7.484;2023-05-07T12:43:37;21.70;99.90
29777;DHT22;16677;52.224;7.484;2023-05-07T12:46:07;21.70;99.90
29777;DHT22;16677;52.224;7.484;2023-05-07T12:48:41;22.20;99.90
29777;DHT22;16677;52.224;7.484;2023-05-07T12:51:10;22.50;99.90
29777;DHT22;16677;52.224;7.484;2023-05-07T12:53:42;22.40;99.90
29777;DHT22;16677;52.224;7.484;2023-05-07T12:56:09;22.50;99.90
29777;DHT22;16677;52.224;7.484;2023-05-07T12:58:36;22.50;99.90
29777;DHT22;16677;52.224;7.484;2023-05-07T13:01:07;22.40;99.90
29777;DHT22;16677;52.224;7.484;2023-05-07T13:03:37;22.30;99.90
29777;DHT22;16677;52.224;7.484;2023-05-07T13:06:07;22.30;99.90
29777;DHT22;16677;52.224;7.484;2023-05-07T13:08:40;22.20;99.90
29777;DHT22;16677;52.224;7.484;2023-05-07T13:11:10;22.00;99.90
29777;DHT22;16677;52.224;7.484;2023-05-07T13:13:40;21.90;99.90
29777;DHT22;16677;52.224;7.484;2023-05-07T13:16:10;22.00;99.90
29777;DHT22;16677;52.224;7.484;2023-05-07T13:18:39;21.90;99.90
29777;DHT22;16677;52.224;7.484;2023-05-07T13:21:07;21.70;99.90
29777;DHT22;16677;52.224;7.484;2023-05-07T13:23:35;21.30;99.90
29777;DHT22;16677;52.224;7.484;2023-05-07T13:26:02;21.40;99.90
29777;DHT22;16677;52.224;7.484;2023-05-07T13:28:34;21.70;99.90
29777;DHT22;16677;52.224;7.484;2023-05-07T13:31:01;22.10;99.90
29777;DHT22;16677;52.224;7.484;2023-05-07T13:33:29;22.30;99.90
29777;DHT22;16677;52.224;7.484;2023-05-07T13:35:56;22.20;99.90
29777;DHT22;16677;52.224;7.484;2023-05-07T13:38:23;22.30;99.90
29777;DHT22;16677;52.224;7.484;2023-05-07T13:40:50;21.90;99.90
29777;DHT22;16677;52.224;7.484;2023-05-07T13:43:17;22.20;99.90
29777;DHT22;16677;52.224;7.484;2023-05-07T13:45:45;21.80;99.90
29777;DHT22;16677;52.224;7.484;2023-05-07T13:48:12;21.50;99.90
29777;DHT22;16677;52.224;7.484;2023-05-07T13:50:39;21.30;99.90
29777;DHT22;16677;52.224;7.484;2023-05-07T13:53:07;21.50;99.90
29777;DHT22;16677;52.224;7.484;2023-05-07T13:55:34;21.50;99.90
29777;DHT22;16677;52.224;7.484;2023-05-07T13:58:02;21.90;99.90
29777;DHT22;16677;52.224;7.484;2023-05-07T14:00:33;22.10;99.90
29777;DHT22;16677;52.224;7.484;2023-05-07T14:03:00;21.90;99.90
29777;DHT22;16677;52.224;7.484;2023-05-07T14:05:27;21.90;99.90
29777;DHT22;16677;52.224;7.484;2023-05-07T14:07:57;22.40;99.90
29777;DHT22;16677;52.224;7.484;2023-05-07T14:10:24;22.70;99.90
29777;DHT22;16677;52.224;7.484;2023-05-07T14:12:51;23.00;99.90
29777;DHT22;16677;52.224;7.484;2023-05-07T14:15:19;22.80;99.90
29777;DHT22;16677;52.224;7.484;2023-05-07T14:17:46;22.80;99.90
29777;DHT22;16677;52.224;7.484;2023-05-07T14:20:13;22.60;99.90
29777;DHT22;16677;52.224;7.484;2023-05-07T14:22:41;22.60;99.90
29777;DHT22;16677;52.224;7.484;2023-05-07T14:25:08;23.00;99.90
29777;DHT22;16677;52.224;7.484;2023-05-07T14:27:39;23.00;99.90
29777;DHT22;16677;52.224;7.484;2023-05-07T14:30:07;22.80;99.90
29777;DHT22;16677;52.224;7.484;2023-05-07T14:32:34;22.30;99.90
29777;DHT22;16677;52.224;7.484;2023-05-07T14:35:02;22.10;99.90
29777;DHT22;16677;52.224;7.484;2023-05-07T14:37:30;21.70;99.90
29777;DHT22;16677;52.224;7.484;2023-05-07T14:39:57;21.60;99.90
29777;DHT22;16677;52.224;7.484;2023-05-07T14:42:24;21.50;99.90
29777;DHT22;16677;52.224;7.484;2023-05-07T14:44:52;21.70;99.90
29777;DHT22;16677;52.224;7.484;2023-05-07T14:47:19;21.80;99.90
29777;DHT22;16677;52.224;7.484;2023-05-07T14:49:46;21.70;99.90
29777;DHT22;16677;52.224;7.484;2023-05-07T14:52:14;21.50;99.90
29777;DHT22;16677;52.224;7.484;2023-05-07T14:54:41;21.60;99.90
29777;DHT22;16677;52.224;7.484;2023-05-07T14:57:09;21.50;99.90
29777;DHT22;16677;52.224;7.484;2023-05-07T14:59:37;21.50;99.90
29777;DHT22;16677;52.224;7.484;2023-05-07T15:02:06;21.30;99.90
29777;DHT22;16677;52.224;7.484;2023-05-07T15:04:34;21.50;99.90
29777;DHT22;16677;52.224;7.484;2023-05-07T15:07:02;21.60;99.90
29777;DHT22;16677;52.224;7.484;2023-05-07T15:09:29;21.40;99.90
29777;DHT22;16677;52.224;7.484;2023-05-07T15:11:56;21.00;99.90
29777;DHT22;16677;52.224;7.484;2023-05-07T15:14:23;20.90;99.90
29777;DHT22;16677;52.224;7.484;2023-05-07T15:16:50;20.90;99.90
29777;DHT22;16677;52.224;7.484;2023-05-07T15:19:17;21.20;99.90
29777;DHT22;16677;52.224;7.484;2023-05-07T15:21:44;21.20;99.90
29777;DHT22;16677;52.224;7.484;2023-05-07T15:24:11;21.30;99.90
29777;DHT22;16677;52.224;7.484;2023-05-07T15:26:38;21.10;99.90
29777;DHT22;16677;52.224;7.484;2023-05-07T15:29:06;21.30;99.90
29777;DHT22;16677;52.224;7.484;2023-05-07T15:31:37;21.30;99.90
29777;DHT22;16677;52.224;7.484;2023-05-07T15:34:05;21.10;99.90
29777;DHT22;16677;52.224;7.484;2023-05-07T15:36:32;20.90;99.90
29777;DHT22;16677;52.224;7.484;2023-05-07T15:39:00;21.10;99.90
29777;DHT22;16677;52.224;7.484;2023-05-07T15:41:29;21.20;99.90
29777;DHT22;16677;52.224;7.484;2023-05-07T15:43:56;20.80;99.90
29777;DHT22;16677;52.224;7.484;2023-05-07T15:46:24;21.00;99.90
29777;DHT22;16677;52.224;7.484;2023-05-07T15:48:52;21.00;99.90
29777;DHT22;16677;52.224;7.484;2023-05-07T15:51:20;20.70;99.90